sensor_id;sensor_type;location;lat;lon;timestamp;temperature;humidity
45207;DHT22;30950;53.086;21.576;2023-04-19T00:00:44;8.10;99.90
45207;DHT22;30950;53.086;21.576;2023-04-19T00:03:16;8.10;99.90
45207;DHT22;30950;53.086;21.576;2023-04-19T00:05:43;8.10;99.90
45207;DHT22;30950;53.086;21.576;2023-04-19T00:08:11;8.10;99.90
45207;DHT22;30950;53.086;21.576;2023-04-19T00:10:38;8.10;99.90
45207;DHT22;30950;53.086;21.576;2023-04-19T00:13:06;8.00;99.90
45207;DHT22;30950;53.086;21.576;2023-04-19T00:15:33;8.00;99.90
45207;DHT22;30950;53.086;21.576;2023-04-19T00:18:01;8.00;99.90
45207;DHT22;30950;53.086;21.576;2023-04-19T00:20:28;8.00;99.90
45207;DHT22;30950;53.086;21.576;2023-04-19T00:22:55;8.00;99.90
45207;DHT22;30950;53.086;21.576;2023-04-19T00:25:25;8.00;99.90
45207;DHT22;30950;53.086;21.576;2023-04-19T00:27:52;8.00;99.90
45207;DHT22;30950;53.086;21.576;2023-04-19T00:30:19;8.30;99.90
45207;DHT22;30950;53.086;21.576;2023-04-19T00:32:47;7.90;99.90
45207;DHT22;30950;53.086;21.576;2023-04-19T00:35:18;7.90;99.90
45207;DHT22;30950;53.086;21.576;2023-04-19T00:37:45;7.90;99.90
45207;DHT22;30950;53.086;21.576;2023-04-19T00:40:13;7.90;99.90
45207;DHT22;30950;53.086;21.576;2023-04-19T00:42:40;8.20;99.90
45207;DHT22;30950;53.086;21.576;2023-04-19T00:45:08;7.90;99.90
45207;DHT22;30950;53.086;21.576;2023-04-19T00:47:36;7.90;99.90
45207;DHT22;30950;53.086;21.576;2023-04-19T00:50:04;7.90;99.90
45207;DHT22;30950;53.086;21.576;2023-04-19T00:52:32;7.90;99.90
45207;DHT22;30950;53.086;21.576;2023-04-19T00:55:00;7.90;99.90
45207;DHT22;30950;53.086;21.576;2023-04-19T00:57:28;7.90;99.90
45207;DHT22;30950;53.086;21.576;2023-04-19T00:59:56;7.90;99.90
45207;DHT22;30950;53.086;21.576;2023-04-19T01:02:24;7.90;99.90
45207;DHT22;30950;53.086;21.576;2023-04-19T01:04:52;7.90;99.90
45207;DHT22;30950;53.086;21.576;2023-04-19T01:07:19;7.90;99.90
45207;DHT22;30950;53.086;21.576;2023-04-19T01:09:46;7.90;99.90
45207;DHT22;30950;53.086;21.576;2023-04-19T01:12:14;8.00;99.90
45207;DHT22;30950;53.086;21.576;2023-04-19T01:14:42;7.90;99.90
45207;DHT22;30950;53.086;21.576;2023-04-19T01:17:10;7.90;99.90
45207;DHT22;30950;53.086;21.576;2023-04-19T01:19:39;8.00;99.90
45207;DHT22;30950;53.086;21.576;2023-04-19T01:22:07;7.90;99.90
45207;DHT22;30950;53.086;21.576;2023-04-19T01:24:35;8.00;99.90
45207;DHT22;30950;53.086;21.576;2023-04-19T01:27:03;8.00;99.90
45207;DHT22;30950;53.086;21.576;2023-04-19T01:29:30;8.30;99.90
45207;DHT22;30950;53.086;21.576;2023-04-19T01:31:57;7.90;99.90
45207;DHT22;30950;53.086;21.576;2023-04-19T01:34:26;8.00;99.90
45207;DHT22;30950;53.086;21.576;2023-04-19T01:36:53;7.90;99.90
45207;DHT22;30950;53.086;21.576;2023-04-19T01:39:20;7.90;99.90
45207;DHT22;30950;53.086;21.576;2023-04-19T01:41:48;7.90;99.90
45207;DHT22;30950;53.086;21.576;2023-04-19T01:44:15;8.00;99.90
45207;DHT22;30950;53.086;21.576;2023-04-19T01:46:42;8.00;99.90
45207;DHT22;30950;53.086;21.576;2023-04-19T01:49:11;7.90;99.90
45207;DHT22;30950;53.086;21.576;2023-04-19T01:51:42;8.00;99.90
45207;DHT22;30950;53.086;21.576;2023-04-19T01:54:09;8.00;99.90
45207;DHT22;30950;53.086;21.576;2023-04-19T01:56:36;8.00;99.90
45207;DHT22;30950;53.086;21.576;2023-04-19T01:59:03;8.00;99.90
45207;DHT22;30950;53.086;21.576;2023-04-19T02:01:31;8.00;99.90
45207;DHT22;30950;53.086;21.576;2023-04-19T02:03:58;8.00;99.90
45207;DHT22;30950;53.086;21.576;2023-04-19T02:06:26;7.90;99.90
45207;DHT22;30950;53.086;21.576;2023-04-19T02:08:53;7.90;99.90
45207;DHT22;30950;53.086;21.576;2023-04-19T02:11:20;7.90;99.90
45207;DHT22;30950;53.086;21.576;2023-04-19T02:13:50;7.90;99.90
45207;DHT22;30950;53.086;21.576;2023-04-19T02:16:17;7.90;99.90
45207;DHT22;30950;53.086;21.576;2023-04-19T02:18:45;7.90;99.90
45207;DHT22;30950;53.086;21.576;2023-04-19T02:21:13;7.90;99.90
45207;DHT22;30950;53.086;21.576;2023-04-19T02:23:40;8.20;99.90
45207;DHT22;30950;53.086;21.576;2023-04-19T02:26:09;8.00;99.90
45207;DHT22;30950;53.086;21.576;2023-04-19T02:28:37;7.90;99.90
45207;DHT22;30950;53.086;21.576;2023-04-19T02:31:05;7.80;99.90
45207;DHT22;30950;53.086;21.576;2023-04-19T02:33:34;7.80;99.90
45207;DHT22;30950;53.086;21.576;2023-04-19T02:36:01;7.80;99.90
45207;DHT22;30950;53.086;21.576;2023-04-19T02:38:28;7.80;99.90
45207;DHT22;30950;53.086;21.576;2023-04-19T02:40:56;7.80;99.90
45207;DHT22;30950;53.086;21.576;2023-04-19T02:43:23;7.80;99.90
45207;DHT22;30950;53.086;21.576;2023-04-19T02:45:51;7.80;99.90
45207;DHT22;30950;53.086;21.576;2023-04-19T02:48:20;7.80;99.90
45207;DHT22;30950;53.086;21.576;2023-04-19T02:50:47;8.20;99.90
45207;DHT22;30950;53.086;21.576;2023-04-19T02:53:14;7.80;99.90
45207;DHT22;30950;53.086;21.576;2023-04-19T02:55:42;7.80;99.90
45207;DHT22;30950;53.086;21.576;2023-04-19T02:58:14;7.80;99.90
45207;DHT22;30950;53.086;21.576;2023-04-19T03:00:56;7.80;99.90
45207;DHT22;30950;53.086;21.576;2023-04-19T03:03:23;7.80;99.90
45207;DHT22;30950;53.086;21.576;2023-04-19T03:05:50;7.80;99.90
45207;DHT22;30950;53.086;21.576;2023-04-19T03:08:17;7.80;99.90
45207;DHT22;30950;53.086;21.576;2023-04-19T03:10:45;7.80;99.90
45207;DHT22;30950;53.086;21.576;2023-04-19T03:13:12;7.80;99.90
45207;DHT22;30950;53.086;21.576;2023-04-19T03:15:39;8.00;99.90
45207;DHT22;30950;53.086;21.576;2023-04-19T03:18:07;7.80;99.90
45207;DHT22;30950;53.086;21.576;2023-04-19T03:20:37;7.80;99.90
45207;DHT22;30950;53.086;21.576;2023-04-19T03:23:05;7.80;99.90
45207;DHT22;30950;53.086;21.576;2023-04-19T03:25:33;7.80;99.90
45207;DHT22;30950;53.086;21.576;2023-04-19T03:28:14;7.80;99.90
45207;DHT22;30950;53.086;21.576;2023-04-19T03:31:08;7.80;99.90
45207;DHT22;30950;53.086;21.576;2023-04-19T03:33:35;7.80;99.90
45207;DHT22;30950;53.086;21.576;2023-04-19T03:36:03;7.80;99.90
45207;DHT22;30950;53.086;21.576;2023-04-19T03:38:31;7.80;99.90
45207;DHT22;30950;53.086;21.576;2023-04-19T03:40:59;7.80;99.90
45207;DHT22;30950;53.086;21.576;2023-04-19T03:43:31;7.80;99.90
45207;DHT22;30950;53.086;21.576;2023-04-19T03:45:58;7.80;99.90
45207;DHT22;30950;53.086;21.576;2023-04-19T03:48:25;7.80;99.90
45207;DHT22;30950;53.086;21.576;2023-04-19T03:50:55;7.90;99.90
45207;DHT22;30950;53.086;21.576;2023-04-19T03:53:24;7.80;99.90
45207;DHT22;30950;53.086;21.576;2023-04-19T03:55:51;7.80;99.90
45207;DHT22;30950;53.086;21.576;2023-04-19T03:58:18;7.90;99.90
45207;DHT22;30950;53.086;21.576;2023-04-19T04:00:52;7.90;99.90
45207;DHT22;30950;53.086;21.576;2023-04-19T04:03:19;7.90;99.90
45207;DHT22;30950;53.086;21.576;2023-04-19T04:05:47;7.90;99.90
45207;DHT22;30950;53.086;21.576;2023-04-19T04:08:14;7.90;99.90
45207;DHT22;30950;53.086;21.576;2023-04-19T04:10:42;7.90;99.90
45207;DHT22;30950;53.086;21.576;2023-04-19T04:13:09;7.90;99.90
45207;DHT22;30950;53.086;21.576;2023-04-19T04:15:45;8.00;99.90
45207;DHT22;30950;53.086;21.576;2023-04-19T04:18:14;7.90;99.90
45207;DHT22;30950;53.086;21.576;2023-04-19T04:20:43;7.90;99.90
45207;DHT22;30950;53.086;21.576;2023-04-19T04:23:11;8.00;99.90
45207;DHT22;30950;53.086;21.576;2023-04-19T04:25:44;8.00;99.90
45207;DHT22;30950;53.086;21.576;2023-04-19T04:28:13;8.00;99.90
45207;DHT22;30950;53.086;21.576;2023-04-19T04:30:40;8.00;99.90
45207;DHT22;30950;53.086;21.576;2023-04-19T04:33:10;8.00;99.90
45207;DHT22;30950;53.086;21.576;2023-04-19T04:35:40;8.00;99.90
45207;DHT22;30950;53.086;21.576;2023-04-19T04:38:14;8.00;99.90
45207;DHT22;30950;53.086;21.576;2023-04-19T04:40:53;8.00;99.90
45207;DHT22;30950;53.086;21.576;2023-04-19T04:43:23;8.00;99.90
45207;DHT22;30950;53.086;21.576;2023-04-19T04:45:50;8.10;99.90
45207;DHT22;30950;53.086;21.576;2023-04-19T04:48:18;8.10;99.90
45207;DHT22;30950;53.086;21.576;2023-04-19T04:50:45;8.10;99.90
45207;DHT22;30950;53.086;21.576;2023-04-19T04:53:12;8.10;99.90
45207;DHT22;30950;53.086;21.576;2023-04-19T04:55:42;8.00;99.90
45207;DHT22;30950;53.086;21.576;2023-04-19T04:58:11;8.10;99.90
45207;DHT22;30950;53.086;21.576;2023-04-19T05:01:01;8.10;99.90
45207;DHT22;30950;53.086;21.576;2023-04-19T05:03:32;8.20;99.90
45207;DHT22;30950;53.086;21.576;2023-04-19T05:06:03;8.20;99.90
45207;DHT22;30950;53.086;21.576;2023-04-19T05:08:30;8.20;99.90
45207;DHT22;30950;53.086;21.576;2023-04-19T05:11:14;8.30;99.90
45207;DHT22;30950;53.086;21.576;2023-04-19T05:13:43;8.30;99.90
45207;DHT22;30950;53.086;21.576;2023-04-19T05:16:10;8.20;99.90
45207;DHT22;30950;53.086;21.576;2023-04-19T05:18:40;8.30;99.90
45207;DHT22;30950;53.086;21.576;2023-04-19T05:21:08;8.30;99.90
45207;DHT22;30950;53.086;21.576;2023-04-19T05:23:37;8.30;99.90
45207;DHT22;30950;53.086;21.576;2023-04-19T05:26:05;8.30;99.90
45207;DHT22;30950;53.086;21.576;2023-04-19T05:28:32;8.30;99.90
45207;DHT22;30950;53.086;21.576;2023-04-19T05:31:11;8.30;99.90
45207;DHT22;30950;53.086;21.576;2023-04-19T05:33:45;8.30;99.90
45207;DHT22;30950;53.086;21.576;2023-04-19T05:36:13;8.40;99.90
45207;DHT22;30950;53.086;21.576;2023-04-19T05:38:40;8.90;99.90
45207;DHT22;30950;53.086;21.576;2023-04-19T05:41:09;8.40;99.90
45207;DHT22;30950;53.086;21.576;2023-04-19T05:43:36;8.50;99.90
45207;DHT22;30950;53.086;21.576;2023-04-19T05:46:06;8.50;99.90
45207;DHT22;30950;53.086;21.576;2023-04-19T05:48:33;8.60;99.90
45207;DHT22;30950;53.086;21.576;2023-04-19T05:51:19;8.60;99.90
45207;DHT22;30950;53.086;21.576;2023-04-19T05:54:15;8.60;99.90
45207;DHT22;30950;53.086;21.576;2023-04-19T05:56:46;8.70;99.90
45207;DHT22;30950;53.086;21.576;2023-04-19T05:59:14;8.70;99.90
45207;DHT22;30950;53.086;21.576;2023-04-19T06:01:42;8.80;99.90
45207;DHT22;30950;53.086;21.576;2023-04-19T06:04:09;8.70;99.90
45207;DHT22;30950;53.086;21.576;2023-04-19T06:06:36;8.80;99.90
45207;DHT22;30950;53.086;21.576;2023-04-19T06:09:04;8.80;99.90
45207;DHT22;30950;53.086;21.576;2023-04-19T06:11:33;8.80;99.90
45207;DHT22;30950;53.086;21.576;2023-04-19T06:14:13;8.90;99.90
45207;DHT22;30950;53.086;21.576;2023-04-19T06:16:41;8.90;99.90
45207;DHT22;30950;53.086;21.576;2023-04-19T06:19:08;9.00;99.90
45207;DHT22;30950;53.086;21.576;2023-04-19T06:21:36;9.20;99.90
45207;DHT22;30950;53.086;21.576;2023-04-19T06:24:04;9.10;99.90
45207;DHT22;30950;53.086;21.576;2023-04-19T06:26:32;9.10;99.90
45207;DHT22;30950;53.086;21.576;2023-04-19T06:28:59;9.20;99.90
45207;DHT22;30950;53.086;21.576;2023-04-19T06:31:27;9.20;99.90
45207;DHT22;30950;53.086;21.576;2023-04-19T06:33:54;9.40;99.90
45207;DHT22;30950;53.086;21.576;2023-04-19T06:36:22;9.60;99.90
45207;DHT22;30950;53.086;21.576;2023-04-19T06:38:49;10.50;99.90
45207;DHT22;30950;53.086;21.576;2023-04-19T06:41:16;9.70;99.90
45207;DHT22;30950;53.086;21.576;2023-04-19T06:43:43;9.60;99.90
45207;DHT22;30950;53.086;21.576;2023-04-19T06:46:11;9.70;99.90
45207;DHT22;30950;53.086;21.576;2023-04-19T06:48:40;9.80;99.90
45207;DHT22;30950;53.086;21.576;2023-04-19T06:51:08;9.90;99.90
45207;DHT22;30950;53.086;21.576;2023-04-19T06:53:35;9.90;99.90
45207;DHT22;30950;53.086;21.576;2023-04-19T06:56:04;10.00;99.90
45207;DHT22;30950;53.086;21.576;2023-04-19T06:58:31;10.10;99.90
45207;DHT22;30950;53.086;21.576;2023-04-19T07:01:02;10.10;99.90
45207;DHT22;30950;53.086;21.576;2023-04-19T07:03:30;10.10;99.90
45207;DHT22;30950;53.086;21.576;2023-04-19T07:05:58;10.20;99.90
45207;DHT22;30950;53.086;21.576;2023-04-19T07:08:25;10.20;99.90
45207;DHT22;30950;53.086;21.576;2023-04-19T07:11:04;10.30;99.90
45207;DHT22;30950;53.086;21.576;2023-04-19T07:13:32;10.30;99.90
45207;DHT22;30950;53.086;21.576;2023-04-19T07:16:03;11.00;99.90
45207;DHT22;30950;53.086;21.576;2023-04-19T07:18:31;10.40;99.90
45207;DHT22;30950;53.086;21.576;2023-04-19T07:20:59;10.40;99.90
45207;DHT22;30950;53.086;21.576;2023-04-19T07:23:26;10.40;99.90
45207;DHT22;30950;53.086;21.576;2023-04-19T07:25:53;11.10;99.90
45207;DHT22;30950;53.086;21.576;2023-04-19T07:28:20;11.20;99.90
45207;DHT22;30950;53.086;21.576;2023-04-19T07:30:48;10.10;99.90
45207;DHT22;30950;53.086;21.576;2023-04-19T07:33:15;10.10;99.90
45207;DHT22;30950;53.086;21.576;2023-04-19T07:35:43;10.10;99.90
45207;DHT22;30950;53.086;21.576;2023-04-19T07:38:10;10.10;99.90
45207;DHT22;30950;53.086;21.576;2023-04-19T07:40:37;10.10;99.90
45207;DHT22;30950;53.086;21.576;2023-04-19T07:43:04;10.10;99.90
45207;DHT22;30950;53.086;21.576;2023-04-19T07:45:32;10.20;99.90
45207;DHT22;30950;53.086;21.576;2023-04-19T07:48:00;10.20;99.90
45207;DHT22;30950;53.086;21.576;2023-04-19T07:50:27;10.90;99.90
45207;DHT22;30950;53.086;21.576;2023-04-19T07:52:55;10.40;99.90
45207;DHT22;30950;53.086;21.576;2023-04-19T07:55:22;10.40;99.90
45207;DHT22;30950;53.086;21.576;2023-04-19T07:57:50;10.30;99.90
45207;DHT22;30950;53.086;21.576;2023-04-19T08:00:17;11.30;99.90
45207;DHT22;30950;53.086;21.576;2023-04-19T08:02:48;10.50;99.90
45207;DHT22;30950;53.086;21.576;2023-04-19T08:05:15;10.50;99.90
45207;DHT22;30950;53.086;21.576;2023-04-19T08:07:44;10.50;99.90
45207;DHT22;30950;53.086;21.576;2023-04-19T08:10:12;10.50;99.90
45207;DHT22;30950;53.086;21.576;2023-04-19T08:12:39;10.60;99.90
45207;DHT22;30950;53.086;21.576;2023-04-19T08:15:23;10.80;99.90
45207;DHT22;30950;53.086;21.576;2023-04-19T08:18:10;10.80;99.90
45207;DHT22;30950;53.086;21.576;2023-04-19T08:20:37;10.80;99.90
45207;DHT22;30950;53.086;21.576;2023-04-19T08:23:05;10.80;99.90
45207;DHT22;30950;53.086;21.576;2023-04-19T08:25:48;10.70;99.90
45207;DHT22;30950;53.086;21.576;2023-04-19T08:28:16;10.80;99.90
45207;DHT22;30950;53.086;21.576;2023-04-19T08:30:44;10.70;99.90
45207;DHT22;30950;53.086;21.576;2023-04-19T08:33:11;10.70;99.90
45207;DHT22;30950;53.086;21.576;2023-04-19T08:35:38;10.80;99.90
45207;DHT22;30950;53.086;21.576;2023-04-19T08:38:08;11.10;99.90
45207;DHT22;30950;53.086;21.576;2023-04-19T08:40:42;11.10;99.90
45207;DHT22;30950;53.086;21.576;2023-04-19T08:43:11;10.90;99.90
45207;DHT22;30950;53.086;21.576;2023-04-19T08:45:39;11.00;99.90
45207;DHT22;30950;53.086;21.576;2023-04-19T08:48:08;11.10;99.90
45207;DHT22;30950;53.086;21.576;2023-04-19T08:50:40;11.20;99.90
45207;DHT22;30950;53.086;21.576;2023-04-19T08:53:27;11.40;99.90
45207;DHT22;30950;53.086;21.576;2023-04-19T08:55:55;11.60;99.90
45207;DHT22;30950;53.086;21.576;2023-04-19T08:58:41;11.60;99.90
45207;DHT22;30950;53.086;21.576;2023-04-19T09:01:11;11.70;99.90
45207;DHT22;30950;53.086;21.576;2023-04-19T09:03:57;11.60;99.90
45207;DHT22;30950;53.086;21.576;2023-04-19T09:06:37;11.70;99.90
45207;DHT22;30950;53.086;21.576;2023-04-19T09:09:15;11.70;99.90
45207;DHT22;30950;53.086;21.576;2023-04-19T09:11:45;11.90;99.90
45207;DHT22;30950;53.086;21.576;2023-04-19T09:14:14;11.70;99.90
45207;DHT22;30950;53.086;21.576;2023-04-19T09:16:42;11.80;99.90
45207;DHT22;30950;53.086;21.576;2023-04-19T09:19:10;11.70;99.90
45207;DHT22;30950;53.086;21.576;2023-04-19T09:21:50;11.80;99.90
45207;DHT22;30950;53.086;21.576;2023-04-19T09:24:37;11.80;99.90
45207;DHT22;30950;53.086;21.576;2023-04-19T09:27:08;11.80;99.90
45207;DHT22;30950;53.086;21.576;2023-04-19T09:29:38;11.80;99.90
45207;DHT22;30950;53.086;21.576;2023-04-19T09:32:05;11.80;99.90
45207;DHT22;30950;53.086;21.576;2023-04-19T09:34:33;11.80;99.90
45207;DHT22;30950;53.086;21.576;2023-04-19T09:37:12;11.90;99.90
45207;DHT22;30950;53.086;21.576;2023-04-19T09:40:00;12.00;99.90
45207;DHT22;30950;53.086;21.576;2023-04-19T09:42:45;12.20;99.90
45207;DHT22;30950;53.086;21.576;2023-04-19T09:45:16;12.40;99.90
45207;DHT22;30950;53.086;21.576;2023-04-19T09:48:00;12.50;99.90
45207;DHT22;30950;53.086;21.576;2023-04-19T09:50:28;12.60;99.90
45207;DHT22;30950;53.086;21.576;2023-04-19T09:52:58;12.50;99.90
45207;DHT22;30950;53.086;21.576;2023-04-19T09:55:26;12.40;99.90
45207;DHT22;30950;53.086;21.576;2023-04-19T09:57:56;12.40;99.90
45207;DHT22;30950;53.086;21.576;2023-04-19T10:00:24;12.30;99.90
45207;DHT22;30950;53.086;21.576;2023-04-19T10:02:54;12.20;99.90
45207;DHT22;30950;53.086;21.576;2023-04-19T10:05:24;12.10;99.90
45207;DHT22;30950;53.086;21.576;2023-04-19T10:07:52;12.50;99.90
45207;DHT22;30950;53.086;21.576;2023-04-19T10:10:26;11.90;99.90
45207;DHT22;30950;53.086;21.576;2023-04-19T10:13:00;11.90;99.90
45207;DHT22;30950;53.086;21.576;2023-04-19T10:15:31;11.90;99.90
45207;DHT22;30950;53.086;21.576;2023-04-19T10:18:35;11.90;99.90
45207;DHT22;30950;53.086;21.576;2023-04-19T10:21:06;12.00;99.90
45207;DHT22;30950;53.086;21.576;2023-04-19T10:23:34;12.10;99.90
45207;DHT22;30950;53.086;21.576;2023-04-19T10:26:03;12.40;99.90
45207;DHT22;30950;53.086;21.576;2023-04-19T10:28:30;12.70;99.90
45207;DHT22;30950;53.086;21.576;2023-04-19T10:30:59;13.10;99.90
45207;DHT22;30950;53.086;21.576;2023-04-19T10:33:34;13.50;99.90
45207;DHT22;30950;53.086;21.576;2023-04-19T10:36:03;14.10;99.90
45207;DHT22;30950;53.086;21.576;2023-04-19T10:38:38;14.40;99.90
45207;DHT22;30950;53.086;21.576;2023-04-19T10:41:06;14.80;99.90
45207;DHT22;30950;53.086;21.576;2023-04-19T10:44:17;14.90;99.90
45207;DHT22;30950;53.086;21.576;2023-04-19T10:46:38;15.10;99.90
45207;DHT22;30950;53.086;21.576;2023-04-19T10:49:08;15.20;99.90
45207;DHT22;30950;53.086;21.576;2023-04-19T10:51:37;15.10;99.90
45207;DHT22;30950;53.086;21.576;2023-04-19T10:54:26;15.00;99.90
45207;DHT22;30950;53.086;21.576;2023-04-19T10:56:58;14.80;99.90
45207;DHT22;30950;53.086;21.576;2023-04-19T10:59:28;14.60;99.90
45207;DHT22;30950;53.086;21.576;2023-04-19T11:01:57;14.50;99.90
45207;DHT22;30950;53.086;21.576;2023-04-19T11:06:57;14.70;99.90
45207;DHT22;30950;53.086;21.576;2023-04-19T11:12:02;14.60;99.90
45207;DHT22;30950;53.086;21.576;2023-04-19T11:14:33;14.60;99.90
45207;DHT22;30950;53.086;21.576;2023-04-19T11:17:17;14.70;99.90
45207;DHT22;30950;53.086;21.576;2023-04-19T11:22:43;14.60;99.90
45207;DHT22;30950;53.086;21.576;2023-04-19T11:25:19;14.50;99.90
45207;DHT22;30950;53.086;21.576;2023-04-19T11:27:48;14.40;99.90
45207;DHT22;30950;53.086;21.576;2023-04-19T11:30:21;14.30;99.90
45207;DHT22;30950;53.086;21.576;2023-04-19T11:32:51;14.20;99.90
45207;DHT22;30950;53.086;21.576;2023-04-19T11:35:26;14.10;99.90
45207;DHT22;30950;53.086;21.576;2023-04-19T11:37:57;14.20;99.90
45207;DHT22;30950;53.086;21.576;2023-04-19T11:40:25;14.10;99.90
45207;DHT22;30950;53.086;21.576;2023-04-19T11:42:58;14.20;99.90
45207;DHT22;30950;53.086;21.576;2023-04-19T11:45:33;14.20;99.90
45207;DHT22;30950;53.086;21.576;2023-04-19T11:48:12;14.30;99.90
45207;DHT22;30950;53.086;21.576;2023-04-19T11:50:43;14.40;99.90
45207;DHT22;30950;53.086;21.576;2023-04-19T11:55:42;14.50;99.90
45207;DHT22;30950;53.086;21.576;2023-04-19T12:00:49;14.60;99.90
45207;DHT22;30950;53.086;21.576;2023-04-19T12:03:21;14.60;99.90
45207;DHT22;30950;53.086;21.576;2023-04-19T12:06:15;14.60;99.90
45207;DHT22;30950;53.086;21.576;2023-04-19T12:08:48;14.60;99.90
45207;DHT22;30950;53.086;21.576;2023-04-19T12:11:17;14.60;99.90
45207;DHT22;30950;53.086;21.576;2023-04-19T12:14:13;14.70;99.90
45207;DHT22;30950;53.086;21.576;2023-04-19T12:16:41;14.80;99.90
45207;DHT22;30950;53.086;21.576;2023-04-19T12:19:13;14.90;99.90
45207;DHT22;30950;53.086;21.576;2023-04-19T12:21:42;15.00;99.90
45207;DHT22;30950;53.086;21.576;2023-04-19T12:24:09;15.20;99.90
45207;DHT22;30950;53.086;21.576;2023-04-19T12:26:54;15.30;99.90
45207;DHT22;30950;53.086;21.576;2023-04-19T12:29:42;15.30;99.90
45207;DHT22;30950;53.086;21.576;2023-04-19T12:32:10;15.60;99.90
45207;DHT22;30950;53.086;21.576;2023-04-19T12:34:37;15.70;99.90
45207;DHT22;30950;53.086;21.576;2023-04-19T12:37:04;15.80;99.90
45207;DHT22;30950;53.086;21.576;2023-04-19T12:39:32;15.90;99.90
45207;DHT22;30950;53.086;21.576;2023-04-19T12:41:59;15.90;99.90
45207;DHT22;30950;53.086;21.576;2023-04-19T12:44:27;15.80;99.90
45207;DHT22;30950;53.086;21.576;2023-04-19T12:46:54;15.80;99.90
45207;DHT22;30950;53.086;21.576;2023-04-19T12:49:24;15.80;99.90
45207;DHT22;30950;53.086;21.576;2023-04-19T12:51:51;15.70;99.90
45207;DHT22;30950;53.086;21.576;2023-04-19T12:54:19;15.60;99.90
45207;DHT22;30950;53.086;21.576;2023-04-19T12:56:46;15.70;99.90
45207;DHT22;30950;53.086;21.576;2023-04-19T12:59:14;15.80;99.90
45207;DHT22;30950;53.086;21.576;2023-04-19T13:01:41;15.90;99.90
45207;DHT22;30950;53.086;21.576;2023-04-19T13:04:09;15.90;99.90
45207;DHT22;30950;53.086;21.576;2023-04-19T13:06:39;16.20;99.90
45207;DHT22;30950;53.086;21.576;2023-04-19T13:09:07;16.70;99.90
45207;DHT22;30950;53.086;21.576;2023-04-19T13:11:40;17.30;99.90
45207;DHT22;30950;53.086;21.576;2023-04-19T13:14:08;17.60;99.90
45207;DHT22;30950;53.086;21.576;2023-04-19T13:16:35;17.60;99.90
45207;DHT22;30950;53.086;21.576;2023-04-19T13:19:02;17.30;99.90
45207;DHT22;30950;53.086;21.576;2023-04-19T13:21:29;16.90;99.90
45207;DHT22;30950;53.086;21.576;2023-04-19T13:23:57;16.60;99.90
45207;DHT22;30950;53.086;21.576;2023-04-19T13:26:25;16.40;99.90
45207;DHT22;30950;53.086;21.576;2023-04-19T13:28:52;16.10;99.90
45207;DHT22;30950;53.086;21.576;2023-04-19T13:31:19;15.90;99.90
45207;DHT22;30950;53.086;21.576;2023-04-19T13:33:47;15.80;99.90
45207;DHT22;30950;53.086;21.576;2023-04-19T13:36:14;15.90;99.90
45207;DHT22;30950;53.086;21.576;2023-04-19T13:38:41;16.30;99.90
45207;DHT22;30950;53.086;21.576;2023-04-19T13:41:09;16.70;99.90
45207;DHT22;30950;53.086;21.576;2023-04-19T13:43:36;17.40;99.90
45207;DHT22;30950;53.086;21.576;2023-04-19T13:46:03;17.60;99.90
45207;DHT22;30950;53.086;21.576;2023-04-19T13:48:31;17.60;99.90
45207;DHT22;30950;53.086;21.576;2023-04-19T13:50:58;17.60;99.90
45207;DHT22;30950;53.086;21.576;2023-04-19T13:53:26;17.40;99.90
45207;DHT22;30950;53.086;21.576;2023-04-19T13:55:55;17.10;99.90
45207;DHT22;30950;53.086;21.576;2023-04-19T13:58:22;16.80;99.90
45207;DHT22;30950;53.086;21.576;2023-04-19T14:00:52;16.50;99.90
45207;DHT22;30950;53.086;21.576;2023-04-19T14:03:21;16.20;99.90
45207;DHT22;30950;53.086;21.576;2023-04-19T14:05:49;15.80;99.90
45207;DHT22;30950;53.086;21.576;2023-04-19T14:08:16;15.50;99.90
45207;DHT22;30950;53.086;21.576;2023-04-19T14:10:43;15.10;99.90
45207;DHT22;30950;53.086;21.576;2023-04-19T14:13:11;14.70;99.90
45207;DHT22;30950;53.086;21.576;2023-04-19T14:15:39;14.60;99.90
45207;DHT22;30950;53.086;21.576;2023-04-19T14:18:06;14.30;99.90
45207;DHT22;30950;53.086;21.576;2023-04-19T14:20:34;14.20;99.90
45207;DHT22;30950;53.086;21.576;2023-04-19T14:23:01;14.00;99.90
45207;DHT22;30950;53.086;21.576;2023-04-19T14:25:28;14.00;99.90
45207;DHT22;30950;53.086;21.576;2023-04-19T14:27:58;13.80;99.90
45207;DHT22;30950;53.086;21.576;2023-04-19T14:30:25;13.80;99.90
45207;DHT22;30950;53.086;21.576;2023-04-19T14:32:53;13.70;99.90
45207;DHT22;30950;53.086;21.576;2023-04-19T14:35:21;13.70;99.90
45207;DHT22;30950;53.086;21.576;2023-04-19T14:37:48;13.70;99.90
45207;DHT22;30950;53.086;21.576;2023-04-19T14:40:16;13.70;99.90
45207;DHT22;30950;53.086;21.576;2023-04-19T14:42:44;13.60;99.90
45207;DHT22;30950;53.086;21.576;2023-04-19T14:45:11;13.50;99.90
45207;DHT22;30950;53.086;21.576;2023-04-19T14:47:39;13.40;99.90
45207;DHT22;30950;53.086;21.576;2023-04-19T14:50:06;13.20;99.90
45207;DHT22;30950;53.086;21.576;2023-04-19T14:52:34;13.10;99.90
45207;DHT22;30950;53.086;21.576;2023-04-19T14:55:01;13.00;99.90
45207;DHT22;30950;53.086;21.576;2023-04-19T14:57:29;12.90;99.90
45207;DHT22;30950;53.086;21.576;2023-04-19T14:59:56;12.70;99.90
45207;DHT22;30950;53.086;21.576;2023-04-19T15:02:24;12.70;99.90
45207;DHT22;30950;53.086;21.576;2023-04-19T15:04:52;12.60;99.90
45207;DHT22;30950;53.086;21.576;2023-04-19T15:07:20;12.60;99.90
45207;DHT22;30950;53.086;21.576;2023-04-19T15:09:47;12.50;99.90
45207;DHT22;30950;53.086;21.576;2023-04-19T15:12:15;12.40;99.90
45207;DHT22;30950;53.086;21.576;2023-04-19T15:14:42;12.40;99.90
45207;DHT22;30950;53.086;21.576;2023-04-19T15:17:09;12.30;99.90
45207;DHT22;30950;53.086;21.576;2023-04-19T15:19:37;12.20;99.90
45207;DHT22;30950;53.086;21.576;2023-04-19T15:22:05;12.10;99.90
45207;DHT22;30950;53.086;21.576;2023-04-19T15:24:35;12.10;99.90
45207;DHT22;30950;53.086;21.576;2023-04-19T15:27:03;12.10;99.90
45207;DHT22;30950;53.086;21.576;2023-04-19T15:29:30;12.10;99.90
45207;DHT22;30950;53.086;21.576;2023-04-19T15:31:57;12.20;99.90
45207;DHT22;30950;53.086;21.576;2023-04-19T15:34:24;12.10;99.90
45207;DHT22;30950;53.086;21.576;2023-04-19T15:36:52;12.10;99.90
45207;DHT22;30950;53.086;21.576;2023-04-19T15:39:19;12.20;99.90
45207;DHT22;30950;53.086;21.576;2023-04-19T15:41:46;12.20;99.90
45207;DHT22;30950;53.086;21.576;2023-04-19T15:44:13;12.10;99.90
45207;DHT22;30950;53.086;21.576;2023-04-19T15:46:41;12.20;99.90
45207;DHT22;30950;53.086;21.576;2023-04-19T15:49:08;12.20;99.90
45207;DHT22;30950;53.086;21.576;2023-04-19T15:51:35;12.20;99.90